Pagrindinis puslapis
METAR-TAF:

METAR-TAF

Oro uostai :

Alžyras, Alžyras

platuma: 36-43N, ilguma: 003-15E, Aukštis: 25 m

Dabartinis oras

Ataskaita buvo paskelbta 20 minutes, ne 05:00 UTC
Vėjas 8 kt iš Pietų/Pietryčių
Temperatūra 15°C
Drėgmė 55%
Slėgis 1021 hPa
Matomumas 10 km arba daugiau
Mažai debesys ne aukštis 2000 ft
Išsisklaidę debesys ne aukštis 20000 ft

METAR: DAAG 060500Z 16008KT 9999 FEW020 SCT200 15/06 Q1021

Laikas: 06:20 (05:20 UTC)

Prognozė

Ataskaita buvo paskelbta 6 valandos ir 20 minutes, ne 23:00 UTC
Prognozė galioja nuo 06 metu 00 UTC su 06 metu 24 UTC
Vėjas 7 kt iš Pietų
Matomumas 10 km arba daugiau
Mažai debesys ne aukštis 2000 ft
Su prošvaistėmis ne aukštis 20000 ft

TAF: DAAG 052300Z 0600/0624 18007KT 9999 FEW020 BKN200

Orai ataskaitas ir orų prognozės (METAR, TAF).

turimą stotys yra geltonos ir raudonos taškus žemėlapyje.

Perkelti pele per norėdami pamatyti stoties vardą.

Tada spustelėkite, norėdami matyti oro stebėjimo ir prognozės.

Norėdami pakeisti žemėlapį: spustelėkite ant žalios mygtukų su juodo kryžiaus žemyn,; žalią mygtuką su brūkšneliu, jei norite nutolinti; arba žalių rodyklių gretimoms žemėlapius.


METAR-TAF: